Time;durP1;ratioP1;P1;durP2;ratioP2;P2;SDS_P1;SDS_P2;PMS_P1;PMS_P2;Temp;Humidity;BMP_temperature;BMP_pressure;BME280_temperature;BME280_humidity;BME280_pressure;Samples;Min_cycle;Max_cycle;Signal;HPM_P1;HPM_P2
2023/08/10 00:01:55;;;;;;;1.70;0.80;;;;;;;26.05;46.18;101105.13;5033508;28;20045;-57
2023/08/10 00:04:23;;;;;;;1.63;0.80;;;;;;;26.05;46.16;101105.13;5033598;28;20416;-57
2023/08/10 00:06:51;;;;;;;1.33;0.55;;;;;;;26.05;46.22;101107.81;5033451;28;20046;-58
2023/08/10 00:09:19;;;;;;;3.67;1.02;;;;;;;26.05;46.26;101105.13;5033205;28;20403;-59
2023/08/10 00:11:46;;;;;;;1.80;0.85;;;;;;;26.05;46.41;101106.94;5033304;28;20053;-59
2023/08/10 00:14:13;;;;;;;2.28;0.80;;;;;;;26.05;46.35;101106.94;5033463;28;20048;-59
2023/08/10 00:16:41;;;;;;;1.48;0.75;;;;;;;26.04;46.38;101097.97;5033570;28;20050;-59
2023/08/10 00:19:09;;;;;;;1.65;0.68;;;;;;;26.05;46.37;101098.81;5033576;28;20045;-57
2023/08/10 00:21:36;;;;;;;2.47;1.00;;;;;;;26.04;46.27;101103.41;5034465;28;20147;-57
2023/08/10 00:24:04;;;;;;;1.30;0.70;;;;;;;26.04;46.25;101095.25;5043804;28;20518;-57
2023/08/10 00:26:31;;;;;;;1.88;0.95;;;;;;;26.04;46.30;101100.69;5046330;28;20059;-57
2023/08/10 00:28:59;;;;;;;1.30;0.73;;;;;;;26.04;46.39;101097.97;5047559;28;20063;-57
2023/08/10 00:31:27;;;;;;;1.95;0.80;;;;;;;26.04;46.27;101106.09;5046149;28;20045;-57
2023/08/10 00:33:54;;;;;;;1.38;0.70;;;;;;;26.04;46.20;101099.84;5043669;28;20045;-57
2023/08/10 00:36:21;;;;;;;2.03;0.80;;;;;;;26.04;46.37;101106.09;5045947;28;20045;-57
2023/08/10 00:38:49;;;;;;;1.50;0.80;;;;;;;26.04;46.27;101105.25;5047933;28;20053;-57
2023/08/10 00:41:17;;;;;;;1.77;0.70;;;;;;;26.04;46.36;101108.81;5046255;28;20059;-57
2023/08/10 00:43:44;;;;;;;1.15;0.60;;;;;;;26.05;46.16;101109.66;5044076;28;20407;-57
2023/08/10 00:46:12;;;;;;;1.35;0.68;;;;;;;26.05;46.08;101109.66;5044680;28;20050;-57
2023/08/10 00:48:40;;;;;;;1.75;0.90;;;;;;;26.05;46.27;101115.09;5047572;28;20044;-57
2023/08/10 00:51:08;;;;;;;1.85;0.98;;;;;;;26.04;46.31;101119.66;5045861;28;20072;-57
2023/08/10 00:53:35;;;;;;;2.28;0.68;;;;;;;26.04;46.29;101111.53;5044841;28;20048;-57
2023/08/10 00:56:04;;;;;;;2.50;0.90;;;;;;;26.05;46.32;101112.38;5044576;28;20037;-57
2023/08/10 00:58:32;;;;;;;1.65;0.93;;;;;;;26.04;46.30;101116.97;5047601;28;20076;-59
2023/08/10 01:01:00;;;;;;;1.70;0.98;;;;;;;26.05;46.35;101112.38;5045794;28;20057;-59
2023/08/10 01:03:27;;;;;;;1.95;1.05;;;;;;;26.05;46.39;101118.69;5044805;28;20053;-59
2023/08/10 01:06:25;;;;;;;1.33;0.68;;;;;;;26.04;46.35;101106.09;5046484;28;20051;-59
2023/08/10 01:09:06;;;;;;;2.10;1.10;;;;;;;26.05;46.43;101120.50;5045961;28;20502;-59
2023/08/10 01:11:42;;;;;;;2.00;0.77;;;;;;;26.04;46.40;101122.38;5044096;28;20045;-59
2023/08/10 01:14:15;;;;;;;1.17;0.60;;;;;;;26.05;46.46;101117.81;5046267;28;20057;-59
2023/08/10 01:16:43;;;;;;;2.38;1.15;;;;;;;26.04;46.33;101118.81;5045743;28;20479;-59
2023/08/10 01:19:26;;;;;;;2.17;1.00;;;;;;;26.04;46.52;101121.53;5044657;28;20045;-59
2023/08/10 01:22:05;;;;;;;1.88;1.00;;;;;;;26.04;46.38;101116.97;5042773;28;20478;-59
2023/08/10 01:24:44;;;;;;;2.17;1.00;;;;;;;26.04;46.47;101126.97;5049463;28;20047;-59
2023/08/10 01:27:12;;;;;;;1.42;0.77;;;;;;;26.03;46.41;101130.69;5047306;28;20041;-59
2023/08/10 01:29:40;;;;;;;1.90;1.02;;;;;;;26.04;46.51;101127.81;5041592;28;20053;-59
2023/08/10 01:32:14;;;;;;;2.08;0.90;;;;;;;26.05;46.65;101131.38;5049821;28;20049;-57
2023/08/10 01:34:41;;;;;;;1.48;0.80;;;;;;;26.03;46.56;101130.69;5048949;28;20045;-59
2023/08/10 01:37:09;;;;;;;1.90;0.98;;;;;;;26.03;46.61;101131.56;5043504;28;20074;-59
2023/08/10 01:39:36;;;;;;;2.42;1.05;;;;;;;26.03;46.51;101134.25;5049046;28;20049;-59
2023/08/10 01:42:05;;;;;;;1.92;0.88;;;;;;;26.03;46.60;101136.97;5050151;28;20049;-59
2023/08/10 01:44:33;;;;;;;2.05;0.80;;;;;;;26.03;46.61;101141.56;5047600;28;20057;-59
2023/08/10 01:47:03;;;;;;;1.77;0.95;;;;;;;26.04;46.55;101138.66;5047006;28;20037;-57
2023/08/10 01:49:34;;;;;;;1.80;0.90;;;;;;;26.03;46.58;101149.69;5042430;28;20066;-57
2023/08/10 01:52:07;;;;;;;2.47;0.98;;;;;;;26.05;46.65;101153.06;5049125;28;20045;-57
2023/08/10 01:54:36;;;;;;;2.28;0.90;;;;;;;26.03;46.76;101153.25;5041533;28;20050;-57
2023/08/10 01:57:03;;;;;;;1.50;0.82;;;;;;;26.03;46.78;101147.81;5049199;28;20377;-57
2023/08/10 01:59:31;;;;;;;1.75;0.82;;;;;;;26.04;46.73;101160.38;5048836;28;20052;-57
2023/08/10 02:01:59;;;;;;;2.40;1.13;;;;;;;26.03;46.73;101155.97;5048675;28;20057;-57
2023/08/10 02:04:26;;;;;;;2.20;0.82;;;;;;;26.03;46.65;101158.69;5045858;28;20053;-55
2023/08/10 02:06:53;;;;;;;2.90;1.08;;;;;;;26.04;46.69;101154.94;5046978;28;20060;-56
2023/08/10 02:09:21;;;;;;;1.73;0.80;;;;;;;26.03;46.77;101152.41;5048434;28;20056;-57
2023/08/10 02:11:48;;;;;;;1.42;0.88;;;;;;;26.03;46.65;101146.97;5048645;28;20053;-57
2023/08/10 02:14:16;;;;;;;1.75;0.85;;;;;;;26.03;46.65;101161.38;5046061;28;20057;-57
2023/08/10 02:16:43;;;;;;;1.85;0.98;;;;;;;26.02;46.66;101159.72;5049123;28;20053;-57
2023/08/10 02:19:11;;;;;;;2.50;1.15;;;;;;;26.03;46.68;101163.25;5048897;28;20063;-57
2023/08/10 02:21:38;;;;;;;2.90;0.95;;;;;;;26.02;46.58;101162.41;5048430;28;20502;-57
2023/08/10 02:24:05;;;;;;;2.03;1.02;;;;;;;26.03;46.60;101166.81;5045752;28;20045;-57
2023/08/10 02:26:33;;;;;;;1.52;0.80;;;;;;;26.03;46.73;101165.97;5048968;28;20084;-59
2023/08/10 02:29:01;;;;;;;1.83;0.93;;;;;;;26.03;46.77;101164.09;5049578;28;20057;-59
2023/08/10 02:31:28;;;;;;;1.33;0.60;;;;;;;26.03;46.74;101172.25;5048040;28;20067;-59
2023/08/10 02:33:56;;;;;;;3.15;1.00;;;;;;;26.04;46.59;101170.38;5046519;28;20053;-59
2023/08/10 02:36:23;;;;;;;1.92;1.05;;;;;;;26.02;46.72;101158.84;5048545;28;20068;-59
2023/08/10 02:38:50;;;;;;;2.30;1.00;;;;;;;26.03;46.73;101166.81;5049493;28;20049;-59
2023/08/10 02:41:18;;;;;;;1.17;0.60;;;;;;;26.02;46.74;101159.72;5048163;28;20067;-59
2023/08/10 02:43:45;;;;;;;1.92;0.77;;;;;;;26.02;46.78;101161.56;5046619;28;20049;-59
2023/08/10 02:46:13;;;;;;;3.15;1.05;;;;;;;26.03;46.77;101155.97;5047014;28;20049;-59
2023/08/10 02:48:40;;;;;;;1.45;0.70;;;;;;;26.02;46.74;101157.00;5049279;28;20053;-57
2023/08/10 02:51:07;;;;;;;2.97;1.02;;;;;;;26.04;46.69;101160.38;5047767;28;20056;-57
2023/08/10 02:53:35;;;;;;;1.60;0.90;;;;;;;26.02;46.70;101164.28;5046442;28;20072;-57
2023/08/10 02:56:02;;;;;;;1.63;0.73;;;;;;;26.02;46.78;101157.00;5048143;28;20060;-57
2023/08/10 02:58:30;;;;;;;2.30;1.15;;;;;;;26.02;46.76;101162.41;5048189;28;20052;-57
2023/08/10 03:00:57;;;;;;;2.20;0.90;;;;;;;26.02;46.74;101164.28;5045959;28;20045;-57
2023/08/10 03:03:26;;;;;;;1.70;0.90;;;;;;;26.02;46.84;101164.28;5045242;28;20415;-57
2023/08/10 03:05:54;;;;;;;1.80;0.90;;;;;;;26.02;46.77;101173.28;5046917;28;20059;-57
2023/08/10 03:08:21;;;;;;;2.63;1.13;;;;;;;26.02;46.78;101175.97;5047990;28;20060;-59
2023/08/10 03:10:48;;;;;;;1.50;0.80;;;;;;;26.02;46.66;101184.13;5045834;28;20049;-59
2023/08/10 03:13:17;;;;;;;1.85;0.98;;;;;;;26.01;46.78;101182.44;5044488;28;20053;-59
2023/08/10 03:15:44;;;;;;;3.08;1.15;;;;;;;26.02;46.67;101183.28;5047862;28;20055;-59
2023/08/10 03:18:12;;;;;;;1.70;0.90;;;;;;;26.02;46.74;101180.56;5047134;28;20048;-57
2023/08/10 03:20:41;;;;;;;1.98;1.00;;;;;;;26.02;46.74;101186.84;5046255;28;20079;-57
2023/08/10 03:23:08;;;;;;;1.88;1.13;;;;;;;26.01;46.72;101177.00;5045379;28;20048;-57
2023/08/10 03:25:36;;;;;;;2.05;0.90;;;;;;;26.02;46.90;101191.41;5046589;28;20498;-57
2023/08/10 03:28:04;;;;;;;1.70;1.00;;;;;;;26.01;46.83;101196.00;5047713;28;20044;-57
2023/08/10 03:30:32;;;;;;;2.33;0.90;;;;;;;26.01;46.72;101189.69;5045993;28;20059;-57
2023/08/10 03:33:00;;;;;;;1.95;1.15;;;;;;;26.01;46.78;101182.44;5044952;28;20060;-57
2023/08/10 03:35:27;;;;;;;2.30;1.10;;;;;;;26.02;46.68;101188.72;5048340;28;20414;-57
2023/08/10 03:37:55;;;;;;;2.08;1.10;;;;;;;26.01;46.80;101190.56;5046769;28;20411;-59
2023/08/10 03:40:22;;;;;;;2.33;1.25;;;;;;;26.01;46.76;101185.16;5046886;28;20049;-59
2023/08/10 03:42:50;;;;;;;2.30;1.00;;;;;;;26.00;46.55;101188.84;5042713;28;20049;-59
2023/08/10 03:45:18;;;;;;;1.58;0.90;;;;;;;26.01;46.79;101187.84;5046613;28;20049;-59
2023/08/10 03:47:45;;;;;;;2.20;1.20;;;;;;;26.00;46.89;101180.72;5047168;28;20053;-59
2023/08/10 03:50:12;;;;;;;1.70;0.90;;;;;;;26.01;46.85;101184.28;5046752;28;20507;-60
2023/08/10 03:52:40;;;;;;;1.70;1.00;;;;;;;26.02;46.85;101186.00;5044605;28;20050;-60
2023/08/10 03:55:08;;;;;;;2.55;1.20;;;;;;;26.00;46.75;101186.13;5047760;28;20052;-59
2023/08/10 03:57:36;;;;;;;2.00;1.00;;;;;;;26.01;46.76;101192.41;5046905;28;20495;-57
2023/08/10 04:00:05;;;;;;;1.80;1.02;;;;;;;26.01;46.76;101181.56;5045481;28;20072;-57
2023/08/10 04:02:43;;;;;;;2.00;1.02;;;;;;;26.00;46.76;101190.72;5052136;28;20060;-57
2023/08/10 04:05:12;;;;;;;1.90;1.10;;;;;;;25.99;46.68;101181.72;5046552;28;20072;-57
2023/08/10 04:07:40;;;;;;;2.20;1.20;;;;;;;26.00;46.57;101183.44;5046683;28;20047;-59
2023/08/10 04:10:10;;;;;;;1.85;0.90;;;;;;;26.00;46.86;101190.72;5046401;28;20048;-59
2023/08/10 04:12:38;;;;;;;1.38;0.80;;;;;;;26.00;46.77;101191.56;5045690;28;20072;-59
2023/08/10 04:15:09;;;;;;;2.25;1.00;;;;;;;26.00;46.68;101194.28;5046708;28;20056;-59
2023/08/10 04:17:37;;;;;;;2.25;1.10;;;;;;;25.99;46.68;101198.00;5046333;28;20048;-59
2023/08/10 04:20:09;;;;;;;1.83;0.98;;;;;;;26.00;46.81;101199.69;5044397;28;20057;-59
2023/08/10 04:22:37;;;;;;;2.58;1.33;;;;;;;25.99;46.88;101200.72;5047244;28;20056;-59
2023/08/10 04:25:06;;;;;;;2.10;1.08;;;;;;;25.99;46.64;101200.72;5047600;28;20499;-59
2023/08/10 04:27:35;;;;;;;2.40;1.10;;;;;;;26.00;46.68;101201.56;5046458;28;20057;-59
2023/08/10 04:30:04;;;;;;;2.70;1.20;;;;;;;26.00;46.73;101196.16;5044062;28;20041;-59
2023/08/10 04:32:31;;;;;;;2.08;1.15;;;;;;;25.99;46.81;101203.44;5047259;28;20045;-60
2023/08/10 04:34:59;;;;;;;2.05;1.13;;;;;;;26.00;46.69;101207.00;5047900;28;20056;-59
2023/08/10 04:37:26;;;;;;;2.30;0.98;;;;;;;26.00;46.64;101212.41;5046079;28;20045;-57
2023/08/10 04:39:54;;;;;;;1.98;0.93;;;;;;;25.99;46.58;101210.72;5043831;28;20057;-57
2023/08/10 04:42:21;;;;;;;2.00;1.20;;;;;;;25.99;46.67;101214.28;5047334;28;20052;-57
2023/08/10 04:44:48;;;;;;;1.85;0.90;;;;;;;26.00;46.74;101215.13;5047728;28;20041;-57
2023/08/10 04:47:16;;;;;;;1.80;1.00;;;;;;;25.99;46.63;101214.28;5045960;28;20479;-59
2023/08/10 04:49:43;;;;;;;1.90;1.02;;;;;;;25.98;46.62;101209.88;5043799;28;20056;-59
2023/08/10 04:52:10;;;;;;;2.30;1.30;;;;;;;25.99;46.56;101211.59;5047098;28;20052;-59
2023/08/10 04:59:08;;;;;;;2.22;1.10;;;;;;;25.97;46.61;101213.63;5057602;28;20507;-59
2023/08/10 05:01:35;;;;;;;2.30;1.25;;;;;;;25.97;46.61;101221.75;5037832;28;20052;-59
2023/08/10 05:04:03;;;;;;;2.53;1.00;;;;;;;25.98;46.61;101219.91;5037298;28;20049;-59
2023/08/10 05:06:30;;;;;;;2.47;1.30;;;;;;;25.96;46.60;101203.75;5037836;28;20045;-60
2023/08/10 05:08:57;;;;;;;2.15;1.00;;;;;;;25.97;46.60;101210.91;5037346;28;20491;-57
2023/08/10 05:11:25;;;;;;;2.45;0.98;;;;;;;25.97;46.58;101213.63;5037339;28;20045;-57
2023/08/10 05:13:52;;;;;;;1.73;1.00;;;;;;;25.97;46.51;101212.75;5037022;28;20046;-57
2023/08/10 05:16:19;;;;;;;2.22;1.00;;;;;;;25.97;46.71;101218.19;5036498;28;20514;-57
2023/08/10 05:18:47;;;;;;;2.78;1.45;;;;;;;25.96;46.65;101225.47;5037510;28;20041;-57
2023/08/10 05:21:14;;;;;;;1.63;1.00;;;;;;;25.98;46.62;101231.59;5037100;28;20046;-57
2023/08/10 05:23:41;;;;;;;2.03;1.25;;;;;;;25.97;46.66;101226.31;5037226;28;20041;-57
2023/08/10 05:26:10;;;;;;;2.67;1.30;;;;;;;25.98;46.76;101233.47;5037422;28;20049;-57
2023/08/10 05:28:38;;;;;;;2.53;1.30;;;;;;;25.97;46.74;101229.03;5037198;28;20060;-57
2023/08/10 05:31:05;;;;;;;1.83;0.90;;;;;;;25.97;46.57;101234.44;5036961;28;20108;-57
2023/08/10 05:33:33;;;;;;;3.72;1.20;;;;;;;25.97;46.65;101234.44;5036796;28;20053;-57
2023/08/10 05:36:00;;;;;;;2.10;0.98;;;;;;;25.97;46.70;101242.59;5037553;28;20050;-57
2023/08/10 05:38:28;;;;;;;1.73;0.90;;;;;;;25.96;46.52;101247.16;5036887;28;20049;-59
2023/08/10 05:40:56;;;;;;;2.88;1.20;;;;;;;25.98;46.59;101256.00;5037709;28;20045;-59
2023/08/10 05:43:23;;;;;;;2.35;1.10;;;;;;;25.97;46.44;101265.16;5037110;28;20049;-59
2023/08/10 05:45:51;;;;;;;1.92;1.08;;;;;;;25.97;46.66;101267.88;5037411;28;20045;-57
2023/08/10 05:48:18;;;;;;;2.45;1.20;;;;;;;25.97;46.69;101264.28;5036871;28;20041;-57
2023/08/10 05:50:45;;;;;;;2.47;1.42;;;;;;;25.96;46.78;101263.44;5036831;28;20068;-57
2023/08/10 05:53:13;;;;;;;2.67;1.20;;;;;;;25.97;46.73;101267.00;5036782;28;20515;-59
2023/08/10 05:55:42;;;;;;;2.55;1.13;;;;;;;25.97;46.82;101272.44;5037149;28;20053;-59
2023/08/10 05:58:09;;;;;;;2.50;1.50;;;;;;;25.96;46.74;101274.28;5036501;28;20049;-57
2023/08/10 06:00:39;;;;;;;2.30;1.10;;;;;;;25.96;46.80;101279.72;5036296;28;20056;-57
2023/08/10 06:03:07;;;;;;;1.80;1.08;;;;;;;25.97;46.75;101276.03;5036712;28;20045;-57
2023/08/10 06:05:35;;;;;;;2.35;1.20;;;;;;;25.97;46.76;101272.44;5036172;28;20056;-57
2023/08/10 06:08:03;;;;;;;2.58;1.27;;;;;;;25.96;46.90;101285.16;5036731;28;20049;-59
2023/08/10 06:10:30;;;;;;;2.03;1.00;;;;;;;25.97;46.72;101284.16;5036184;28;20038;-59
2023/08/10 06:12:57;;;;;;;2.50;1.30;;;;;;;25.96;46.70;101282.44;5036091;28;20049;-59
2023/08/10 06:15:25;;;;;;;2.47;1.08;;;;;;;25.96;46.73;101285.16;5051954;28;20049;-59
2023/08/10 06:17:52;;;;;;;1.70;0.95;;;;;;;25.97;46.66;101286.88;5055223;28;20487;-57
2023/08/10 06:20:23;;;;;;;2.33;1.00;;;;;;;25.96;46.69;101293.28;5054888;28;20049;-57
2023/08/10 06:22:50;;;;;;;1.95;1.17;;;;;;;25.97;46.79;101291.41;5054744;28;20064;-57
2023/08/10 06:25:17;;;;;;;1.73;0.95;;;;;;;25.96;46.73;101287.88;5054251;28;20053;-57
2023/08/10 06:27:47;;;;;;;2.05;1.23;;;;;;;25.95;46.83;101286.16;5055184;28;20048;-57
2023/08/10 06:30:17;;;;;;;2.08;1.20;;;;;;;25.96;46.81;101285.16;5055075;28;20410;-58
2023/08/10 06:32:45;;;;;;;2.40;1.10;;;;;;;25.96;46.79;101287.88;5054476;28;20048;-58
2023/08/10 06:35:12;;;;;;;2.85;1.02;;;;;;;25.95;46.84;101291.59;5054045;28;20055;-58
2023/08/10 06:37:40;;;;;;;2.15;1.25;;;;;;;25.96;46.85;101287.88;5054777;28;20063;-57
2023/08/10 06:40:11;;;;;;;2.42;1.00;;;;;;;25.96;46.87;101293.28;5053428;28;20052;-57
2023/08/10 06:42:38;;;;;;;1.85;1.00;;;;;;;25.96;46.93;101292.44;5054166;28;20049;-58
2023/08/10 06:45:18;;;;;;;2.55;1.30;;;;;;;25.96;46.87;101290.56;5034650;28;20065;-58
2023/08/10 06:47:45;;;;;;;2.08;1.25;;;;;;;25.97;46.89;101299.56;5036005;28;20045;-55
2023/08/10 06:50:13;;;;;;;2.33;1.10;;;;;;;25.96;46.92;101300.59;5035469;28;20041;-56
2023/08/10 06:52:41;;;;;;;2.20;1.10;;;;;;;25.95;47.08;101291.59;5036010;28;20415;-56
2023/08/10 06:55:11;;;;;;;1.38;0.70;;;;;;;25.97;46.90;101302.28;5034652;28;20045;-55
2023/08/10 06:57:39;;;;;;;1.88;1.08;;;;;;;25.96;46.85;101306.84;5035365;28;20037;-56
2023/08/10 07:00:13;;;;;;;1.98;1.05;;;;;;;25.96;46.82;101309.56;5035306;28;20056;-56
2023/08/10 07:02:43;;;;;;;2.10;1.10;;;;;;;25.96;46.94;101309.56;5035846;28;20045;-55
2023/08/10 07:05:10;;;;;;;1.80;0.98;;;;;;;25.96;47.01;101301.44;5035285;28;20403;-56
2023/08/10 07:07:37;;;;;;;1.80;0.90;;;;;;;25.96;46.92;101304.13;5035260;28;20056;-55
2023/08/10 07:10:07;;;;;;;2.15;0.95;;;;;;;25.98;47.07;101309.44;5035175;28;20052;-55
2023/08/10 07:12:34;;;;;;;2.03;1.27;;;;;;;25.97;47.04;101313.13;5034319;28;20052;-56
2023/08/10 07:15:02;;;;;;;2.53;1.40;;;;;;;25.97;46.93;101308.56;5034390;28;20514;-56
2023/08/10 07:17:30;;;;;;;3.13;1.38;;;;;;;25.97;47.11;101311.28;5033718;28;20053;-55
2023/08/10 07:19:58;;;;;;;2.47;1.08;;;;;;;25.97;46.89;101311.28;5034377;28;20045;-55
2023/08/10 07:22:25;;;;;;;2.13;1.17;;;;;;;25.96;47.05;101315.00;5053660;28;20041;-56
2023/08/10 07:24:54;;;;;;;2.45;1.30;;;;;;;25.97;47.10;101315.84;5053700;28;20041;-56
2023/08/10 07:27:21;;;;;;;2.22;1.13;;;;;;;25.97;47.07;101314.00;5053518;28;20049;-56
2023/08/10 07:29:50;;;;;;;2.25;1.30;;;;;;;25.97;47.18;101315.84;5040903;28;20045;-55
2023/08/10 07:32:18;;;;;;;1.98;0.93;;;;;;;25.96;47.17;101312.28;5034274;28;20053;-55
2023/08/10 07:34:46;;;;;;;2.00;1.05;;;;;;;25.97;47.16;101313.13;5034338;28;20061;-56
2023/08/10 07:37:13;;;;;;;1.67;0.90;;;;;;;25.97;46.95;101314.00;5034548;28;20052;-56
2023/08/10 07:39:40;;;;;;;2.30;1.00;;;;;;;25.97;47.10;101316.72;5034591;28;20041;-56
2023/08/10 07:42:08;;;;;;;2.85;1.17;;;;;;;25.97;46.98;101307.69;5034603;28;20042;-56
2023/08/10 07:44:35;;;;;;;2.38;1.15;;;;;;;25.98;47.13;101323.00;5034625;28;20049;-54
2023/08/10 07:47:03;;;;;;;2.03;0.98;;;;;;;25.97;47.18;101321.25;5034965;28;20045;-57
2023/08/10 07:49:31;;;;;;;1.65;0.77;;;;;;;25.97;47.31;101319.44;5034328;28;20056;-58
2023/08/10 07:51:59;;;;;;;2.58;1.30;;;;;;;25.97;47.18;101313.13;5034220;28;20045;-58
2023/08/10 07:54:26;;;;;;;1.88;1.00;;;;;;;25.97;47.32;101316.72;5033714;28;20064;-58
2023/08/10 07:56:53;;;;;;;1.80;0.90;;;;;;;25.98;47.11;101315.69;5034141;28;20056;-57
2023/08/10 07:59:21;;;;;;;1.98;1.20;;;;;;;25.98;47.08;101318.41;5034190;28;20046;-58
2023/08/10 08:01:48;;;;;;;2.35;1.30;;;;;;;25.98;47.05;101312.97;5034692;28;20041;-58
2023/08/10 08:04:16;;;;;;;2.17;1.15;;;;;;;25.98;47.21;101312.97;5034196;28;20056;-58
2023/08/10 08:06:44;;;;;;;2.20;1.20;;;;;;;25.98;47.07;101323.84;5034148;28;20046;-58
2023/08/10 08:09:12;;;;;;;2.00;1.00;;;;;;;25.99;47.24;101328.25;5034237;28;20049;-58
2023/08/10 08:11:39;;;;;;;1.58;0.80;;;;;;;25.99;47.08;101324.69;5034329;28;20423;-58
2023/08/10 08:14:07;;;;;;;2.20;1.27;;;;;;;25.98;47.02;101326.53;5033814;28;20053;-58
2023/08/10 08:16:34;;;;;;;1.88;1.02;;;;;;;26.00;47.07;101326.38;5033845;28;20440;-58
2023/08/10 08:19:02;;;;;;;1.95;1.10;;;;;;;25.99;47.04;101320.09;5034011;28;20044;-58
2023/08/10 08:21:30;;;;;;;2.22;1.10;;;;;;;26.00;46.94;101329.94;5034150;28;20041;-58
2023/08/10 08:23:58;;;;;;;2.35;1.13;;;;;;;25.99;47.06;101333.66;5033703;28;20045;-58
2023/08/10 08:26:28;;;;;;;1.92;1.00;;;;;;;25.99;46.88;101325.53;5033685;28;20045;-58
2023/08/10 08:28:57;;;;;;;2.72;1.25;;;;;;;26.00;46.90;101332.63;5034117;28;20056;-56
2023/08/10 08:31:25;;;;;;;2.55;1.40;;;;;;;26.00;47.05;101339.94;5034446;28;20049;-56
2023/08/10 08:33:53;;;;;;;2.08;1.10;;;;;;;26.01;46.90;101334.38;5033590;28;20060;-56
2023/08/10 08:36:21;;;;;;;1.92;0.95;;;;;;;26.01;46.99;101338.91;5032507;28;20518;-56
2023/08/10 08:38:48;;;;;;;1.90;0.88;;;;;;;26.00;46.99;101340.78;5034310;28;20060;-58
2023/08/10 08:41:18;;;;;;;1.63;1.00;;;;;;;26.01;47.02;101339.78;5032985;28;20045;-58
2023/08/10 08:43:48;;;;;;;2.80;1.30;;;;;;;26.02;47.16;101348.78;5037524;28;20053;-58
2023/08/10 08:46:20;;;;;;;2.10;1.13;;;;;;;26.01;47.06;101345.22;5052468;28;20044;-58
2023/08/10 08:48:48;;;;;;;1.92;1.00;;;;;;;26.01;47.06;101339.78;5051838;28;20041;-55
2023/08/10 08:51:16;;;;;;;1.88;1.02;;;;;;;26.02;47.08;101346.06;5052393;28;20045;-55
2023/08/10 08:53:44;;;;;;;2.25;1.10;;;;;;;26.01;47.12;101345.22;5052759;28;20045;-55
2023/08/10 08:56:11;;;;;;;1.83;0.93;;;;;;;26.01;47.18;101334.38;5052375;28;20403;-55
2023/08/10 08:58:39;;;;;;;3.50;1.38;;;;;;;26.02;47.10;101337.91;5051564;28;20053;-55
2023/08/10 09:01:08;;;;;;;2.65;1.30;;;;;;;26.02;47.08;101335.22;5052247;28;20049;-56
2023/08/10 09:03:35;;;;;;;2.60;1.00;;;;;;;26.02;47.06;101340.63;5052252;28;20045;-55
2023/08/10 09:06:03;;;;;;;2.35;1.20;;;;;;;26.02;47.09;101341.47;5052939;28;20053;-55
2023/08/10 09:08:30;;;;;;;2.42;1.00;;;;;;;26.02;47.15;101336.06;5052462;28;20397;-58
2023/08/10 09:10:59;;;;;;;1.90;1.00;;;;;;;26.02;47.23;101335.22;5052203;28;20506;-58
2023/08/10 09:13:27;;;;;;;1.95;1.02;;;;;;;26.04;47.06;101327.75;5052184;28;20403;-58
2023/08/10 09:16:10;;;;;;;2.38;1.10;;;;;;;26.02;47.14;101330.63;5052323;28;20041;-58
2023/08/10 09:18:40;;;;;;;2.17;1.20;;;;;;;26.03;47.13;101332.31;5052689;28;20055;-55
2023/08/10 09:21:17;;;;;;;1.90;1.02;;;;;;;26.03;47.16;101335.03;5052070;28;20045;-55
2023/08/10 09:23:48;;;;;;;2.05;1.00;;;;;;;26.03;46.98;101336.91;5052286;28;20059;-55
2023/08/10 09:26:18;;;;;;;2.47;0.70;;;;;;;26.03;47.13;101339.63;5051588;28;20053;-56
2023/08/10 09:28:47;;;;;;;2.35;1.13;;;;;;;26.03;47.07;101336.91;5052117;28;20418;-57
2023/08/10 09:31:23;;;;;;;2.10;0.98;;;;;;;26.03;47.10;101326.06;5052360;28;20064;-58
2023/08/10 09:33:56;;;;;;;2.33;1.20;;;;;;;26.04;47.02;101325.03;5051524;28;20064;-58
2023/08/10 09:36:25;;;;;;;2.00;1.10;;;;;;;26.03;47.01;101321.47;5052467;28;20041;-58
2023/08/10 09:38:53;;;;;;;2.00;0.93;;;;;;;26.02;47.04;101317.06;5052589;28;20411;-56
2023/08/10 09:41:23;;;;;;;1.70;0.90;;;;;;;26.03;47.10;101321.47;5053493;28;20487;-55
2023/08/10 09:43:51;;;;;;;2.08;0.93;;;;;;;26.03;47.12;101321.47;5055175;28;20045;-56
2023/08/10 09:46:18;;;;;;;1.73;0.98;;;;;;;26.04;47.16;101320.44;5055650;28;20045;-56
2023/08/10 09:48:48;;;;;;;1.88;1.00;;;;;;;26.04;47.06;101316.88;5055801;28;20047;-55
2023/08/10 09:51:17;;;;;;;1.92;0.98;;;;;;;26.04;47.23;101314.19;5055745;28;20215;-56
2023/08/10 09:53:44;;;;;;;1.65;1.00;;;;;;;26.04;47.24;101315.03;5054976;28;20053;-55
2023/08/10 09:56:12;;;;;;;2.63;0.90;;;;;;;26.03;47.15;101313.34;5055746;28;20403;-56
2023/08/10 09:58:41;;;;;;;2.50;1.20;;;;;;;26.04;47.20;101306.03;5052004;28;20046;-56
2023/08/10 10:01:10;;;;;;;1.98;1.00;;;;;;;26.03;47.20;101302.47;5036337;28;20042;-56
2023/08/10 10:03:43;;;;;;;1.55;0.80;;;;;;;26.05;47.36;101310.44;5055167;28;20052;-55
2023/08/10 10:06:12;;;;;;;2.30;1.25;;;;;;;26.05;47.19;101313.16;5055065;28;20049;-56
2023/08/10 10:08:55;;;;;;;2.10;1.00;;;;;;;26.04;47.40;101306.88;5055182;28;20045;-55
2023/08/10 10:11:24;;;;;;;3.20;1.35;;;;;;;26.04;47.26;101304.16;5054437;28;20041;-56
2023/08/10 10:13:52;;;;;;;1.90;1.00;;;;;;;26.04;47.19;101306.03;5054838;28;20060;-55
2023/08/10 10:16:19;;;;;;;2.10;0.98;;;;;;;26.04;47.24;101306.88;5055762;28;20413;-55
2023/08/10 10:18:47;;;;;;;1.90;0.80;;;;;;;26.04;47.24;101306.88;5054846;28;20048;-55
2023/08/10 10:21:15;;;;;;;2.00;1.10;;;;;;;26.04;47.26;101301.44;5054121;28;20053;-56
2023/08/10 10:23:42;;;;;;;1.85;1.15;;;;;;;26.05;47.27;101296.88;5055333;28;20045;-56
2023/08/10 10:26:10;;;;;;;1.92;1.00;;;;;;;26.04;47.00;101293.31;5054647;28;20049;-56
2023/08/10 10:28:39;;;;;;;1.85;1.00;;;;;;;26.05;47.32;101303.19;5054801;28;20049;-55
2023/08/10 10:31:12;;;;;;;2.45;1.15;;;;;;;26.05;47.30;101297.75;5053973;28;20049;-55
2023/08/10 10:33:55;;;;;;;1.85;0.93;;;;;;;26.05;47.28;101303.19;5054992;28;20053;-55
2023/08/10 10:36:23;;;;;;;1.90;1.02;;;;;;;26.05;47.25;101302.31;5054805;28;20052;-55
2023/08/10 10:39:04;;;;;;;2.08;1.00;;;;;;;26.05;47.22;101295.03;5053884;28;20052;-58
2023/08/10 10:41:32;;;;;;;1.52;0.90;;;;;;;26.04;47.32;101301.44;5054942;28;20045;-58
2023/08/10 10:44:04;;;;;;;1.85;1.08;;;;;;;26.05;47.32;101286.91;5054269;28;20410;-58
2023/08/10 10:46:36;;;;;;;1.67;0.90;;;;;;;26.05;47.12;101300.47;5054638;28;20072;-58
2023/08/10 10:49:11;;;;;;;2.00;1.20;;;;;;;26.04;47.32;101296.03;5035704;28;20058;-56
2023/08/10 10:51:48;;;;;;;1.52;0.98;;;;;;;26.06;47.24;101295.88;5035710;28;20049;-55
2023/08/10 10:54:17;;;;;;;1.63;0.85;;;;;;;26.05;47.24;101297.75;5035496;28;20076;-55
2023/08/10 10:56:46;;;;;;;2.35;1.10;;;;;;;26.06;47.24;101296.72;5035804;28;20057;-56
2023/08/10 10:59:14;;;;;;;2.08;1.20;;;;;;;26.05;47.43;101289.59;5035350;28;20053;-56
2023/08/10 11:01:47;;;;;;;1.90;0.95;;;;;;;26.06;47.38;101285.03;5035205;28;20068;-56
2023/08/10 11:04:14;;;;;;;;;;;;;;;26.04;47.33;101287.88;5036366;28;20049;-55
2023/08/10 11:06:41;;;;;;;1.77;0.90;;;;;;;26.05;47.34;101286.91;5034711;28;19928;-56
2023/08/10 11:09:09;;;;;;;1.77;0.85;;;;;;;26.06;47.20;101280.44;5034606;28;20411;-58
2023/08/10 11:11:37;;;;;;;1.95;1.00;;;;;;;26.05;47.36;101286.03;5034853;28;20041;-57
2023/08/10 11:14:05;;;;;;;2.45;1.27;;;;;;;26.06;47.27;101293.16;5034291;28;20057;-58
2023/08/10 11:16:43;;;;;;;2.00;0.80;;;;;;;26.06;47.31;101285.03;5034600;28;20046;-58
2023/08/10 11:19:13;;;;;;;1.88;0.90;;;;;;;26.06;47.29;101276.88;5035053;28;20053;-58
2023/08/10 11:21:44;;;;;;;1.52;0.75;;;;;;;26.06;47.32;101279.59;5034219;28;20057;-58
2023/08/10 11:24:12;;;;;;;3.50;1.00;;;;;;;26.06;47.28;101288.59;5034169;28;20444;-58
2023/08/10 11:26:41;;;;;;;1.98;1.05;;;;;;;26.05;47.38;101292.31;5034407;28;20064;-58
2023/08/10 11:29:10;;;;;;;1.77;0.85;;;;;;;26.06;47.22;101287.75;5034599;28;20395;-58
2023/08/10 11:31:41;;;;;;;1.73;1.00;;;;;;;26.05;47.31;101280.59;5034316;28;20392;-58
2023/08/10 11:34:20;;;;;;;2.42;1.15;;;;;;;26.05;47.40;101281.47;5034585;28;20420;-58
2023/08/10 11:36:49;;;;;;;2.10;1.20;;;;;;;26.06;47.32;101268.75;5034762;28;20065;-57